sensor_id;sensor_type;location;lat;lon;timestamp;temperature;humidity
65203;HTU21D;51788;45.124;38.966;2022-11-20T00:01:11;12.20;89.03
65203;HTU21D;51788;45.124;38.966;2022-11-20T00:03:37;12.23;88.92
65203;HTU21D;51788;45.124;38.966;2022-11-20T00:06:06;12.22;88.82
65203;HTU21D;51788;45.124;38.966;2022-11-20T00:08:33;12.17;88.86
65203;HTU21D;51788;45.124;38.966;2022-11-20T00:11:07;12.13;88.89
65203;HTU21D;51788;45.124;38.966;2022-11-20T00:13:33;12.11;88.88
65203;HTU21D;51788;45.124;38.966;2022-11-20T00:16:02;12.13;88.92
65203;HTU21D;51788;45.124;38.966;2022-11-20T00:18:29;12.13;88.86
65203;HTU21D;51788;45.124;38.966;2022-11-20T00:21:01;12.14;88.74
65203;HTU21D;51788;45.124;38.966;2022-11-20T00:23:27;12.12;88.70
65203;HTU21D;51788;45.124;38.966;2022-11-20T00:25:53;12.07;88.73
65203;HTU21D;51788;45.124;38.966;2022-11-20T00:28:19;12.05;88.73
65203;HTU21D;51788;45.124;38.966;2022-11-20T00:30:45;12.02;88.70
65203;HTU21D;51788;45.124;38.966;2022-11-20T00:33:11;12.02;88.73
65203;HTU21D;51788;45.124;38.966;2022-11-20T00:35:36;11.99;88.64
65203;HTU21D;51788;45.124;38.966;2022-11-20T00:38:02;12.00;88.73
65203;HTU21D;51788;45.124;38.966;2022-11-20T00:40:28;11.98;88.55
65203;HTU21D;51788;45.124;38.966;2022-11-20T00:42:54;11.96;88.62
65203;HTU21D;51788;45.124;38.966;2022-11-20T00:45:20;11.98;88.54
65203;HTU21D;51788;45.124;38.966;2022-11-20T00:47:46;11.93;88.54
65203;HTU21D;51788;45.124;38.966;2022-11-20T00:50:12;11.94;88.52
65203;HTU21D;51788;45.124;38.966;2022-11-20T00:52:38;11.88;88.47
65203;HTU21D;51788;45.124;38.966;2022-11-20T00:55:04;11.84;88.69
65203;HTU21D;51788;45.124;38.966;2022-11-20T00:57:31;11.85;88.57
65203;HTU21D;51788;45.124;38.966;2022-11-20T00:59:57;11.71;88.63
65203;HTU21D;51788;45.124;38.966;2022-11-20T01:02:23;11.57;88.99
65203;HTU21D;51788;45.124;38.966;2022-11-20T01:04:49;11.59;89.09
65203;HTU21D;51788;45.124;38.966;2022-11-20T01:07:15;11.67;88.92
65203;HTU21D;51788;45.124;38.966;2022-11-20T01:09:41;11.66;88.66
65203;HTU21D;51788;45.124;38.966;2022-11-20T01:12:07;11.55;88.83
65203;HTU21D;51788;45.124;38.966;2022-11-20T01:14:33;11.48;88.98
65203;HTU21D;51788;45.124;38.966;2022-11-20T01:16:58;11.47;89.02
65203;HTU21D;51788;45.124;38.966;2022-11-20T01:19:24;11.47;88.92
65203;HTU21D;51788;45.124;38.966;2022-11-20T01:21:52;11.41;88.86
65203;HTU21D;51788;45.124;38.966;2022-11-20T01:24:20;11.32;89.05
65203;HTU21D;51788;45.124;38.966;2022-11-20T01:26:50;11.34;89.18
65203;HTU21D;51788;45.124;38.966;2022-11-20T01:29:21;11.31;89.02
65203;HTU21D;51788;45.124;38.966;2022-11-20T01:31:48;11.22;89.15
65203;HTU21D;51788;45.124;38.966;2022-11-20T01:34:16;11.13;89.38
65203;HTU21D;51788;45.124;38.966;2022-11-20T01:36:42;11.11;89.38
65203;HTU21D;51788;45.124;38.966;2022-11-20T01:39:15;11.13;89.44
65203;HTU21D;51788;45.124;38.966;2022-11-20T01:41:43;11.22;89.20
65203;HTU21D;51788;45.124;38.966;2022-11-20T01:44:51;11.18;89.05
65203;HTU21D;51788;45.124;38.966;2022-11-20T01:47:41;11.12;89.18
65203;HTU21D;51788;45.124;38.966;2022-11-20T01:50:29;11.10;89.20
65203;HTU21D;51788;45.124;38.966;2022-11-20T01:53:05;11.07;89.10
65203;HTU21D;51788;45.124;38.966;2022-11-20T01:55:38;11.07;89.10
65203;HTU21D;51788;45.124;38.966;2022-11-20T01:58:05;11.14;88.95
65203;HTU21D;51788;45.124;38.966;2022-11-20T02:00:31;11.05;88.93
65203;HTU21D;51788;45.124;38.966;2022-11-20T02:03:03;11.00;89.20
65203;HTU21D;51788;45.124;38.966;2022-11-20T02:05:43;11.03;89.05
65203;HTU21D;51788;45.124;38.966;2022-11-20T02:08:10;11.01;88.87
65203;HTU21D;51788;45.124;38.966;2022-11-20T02:10:36;10.90;88.97
65203;HTU21D;51788;45.124;38.966;2022-11-20T02:13:03;10.94;89.15
65203;HTU21D;51788;45.124;38.966;2022-11-20T02:15:47;11.00;88.86
65203;HTU21D;51788;45.124;38.966;2022-11-20T02:18:16;11.00;88.70
65203;HTU21D;51788;45.124;38.966;2022-11-20T02:20:44;11.01;88.81
65203;HTU21D;51788;45.124;38.966;2022-11-20T02:23:38;11.09;88.68
65203;HTU21D;51788;45.124;38.966;2022-11-20T02:26:08;11.13;88.49
65203;HTU21D;51788;45.124;38.966;2022-11-20T02:28:38;11.19;88.45
65203;HTU21D;51788;45.124;38.966;2022-11-20T02:31:04;11.18;88.29
65203;HTU21D;51788;45.124;38.966;2022-11-20T02:33:30;11.13;88.29
65203;HTU21D;51788;45.124;38.966;2022-11-20T02:35:56;11.02;88.51
65203;HTU21D;51788;45.124;38.966;2022-11-20T02:38:21;10.92;88.74
65203;HTU21D;51788;45.124;38.966;2022-11-20T02:40:47;10.82;89.00
65203;HTU21D;51788;45.124;38.966;2022-11-20T02:43:15;10.78;89.09
65203;HTU21D;51788;45.124;38.966;2022-11-20T02:45:41;10.74;89.03
65203;HTU21D;51788;45.124;38.966;2022-11-20T02:48:07;10.66;89.12
65203;HTU21D;51788;45.124;38.966;2022-11-20T02:50:35;10.69;89.24
65203;HTU21D;51788;45.124;38.966;2022-11-20T02:53:01;10.62;89.06
65203;HTU21D;51788;45.124;38.966;2022-11-20T02:55:27;10.55;89.44
65203;HTU21D;51788;45.124;38.966;2022-11-20T02:57:53;10.59;89.31
65203;HTU21D;51788;45.124;38.966;2022-11-20T03:00:19;10.57;89.13
65203;HTU21D;51788;45.124;38.966;2022-11-20T03:02:45;10.44;89.31
65203;HTU21D;51788;45.124;38.966;2022-11-20T03:05:11;10.35;89.51
65203;HTU21D;51788;45.124;38.966;2022-11-20T03:07:37;10.27;89.70
65203;HTU21D;51788;45.124;38.966;2022-11-20T03:10:04;10.23;89.73
65203;HTU21D;51788;45.124;38.966;2022-11-20T03:12:30;10.20;89.73
65203;HTU21D;51788;45.124;38.966;2022-11-20T03:14:56;10.12;89.82
65203;HTU21D;51788;45.124;38.966;2022-11-20T03:17:22;10.21;89.73
65203;HTU21D;51788;45.124;38.966;2022-11-20T03:19:48;10.28;89.42
65203;HTU21D;51788;45.124;38.966;2022-11-20T03:22:14;10.26;89.34
65203;HTU21D;51788;45.124;38.966;2022-11-20T03:24:40;10.22;89.39
65203;HTU21D;51788;45.124;38.966;2022-11-20T03:27:06;10.22;89.41
65203;HTU21D;51788;45.124;38.966;2022-11-20T03:29:32;10.28;89.38
65203;HTU21D;51788;45.124;38.966;2022-11-20T03:31:58;10.30;89.33
65203;HTU21D;51788;45.124;38.966;2022-11-20T03:34:24;10.36;89.36
65203;HTU21D;51788;45.124;38.966;2022-11-20T03:36:50;10.51;89.34
65203;HTU21D;51788;45.124;38.966;2022-11-20T03:39:16;10.60;89.07
65203;HTU21D;51788;45.124;38.966;2022-11-20T03:41:41;10.56;89.00
65203;HTU21D;51788;45.124;38.966;2022-11-20T03:44:10;10.54;89.22
65203;HTU21D;51788;45.124;38.966;2022-11-20T03:46:36;10.56;89.28
65203;HTU21D;51788;45.124;38.966;2022-11-20T03:49:03;10.58;89.21
65203;HTU21D;51788;45.124;38.966;2022-11-20T03:51:31;10.62;89.33
65203;HTU21D;51788;45.124;38.966;2022-11-20T03:54:01;10.72;89.31
65203;HTU21D;51788;45.124;38.966;2022-11-20T03:56:32;10.85;89.23
65203;HTU21D;51788;45.124;38.966;2022-11-20T03:58:59;10.89;89.10
65203;HTU21D;51788;45.124;38.966;2022-11-20T04:01:35;10.89;89.08
65203;HTU21D;51788;45.124;38.966;2022-11-20T04:04:02;10.85;89.06
65203;HTU21D;51788;45.124;38.966;2022-11-20T04:06:33;10.80;89.11
65203;HTU21D;51788;45.124;38.966;2022-11-20T04:08:59;10.74;89.21
65203;HTU21D;51788;45.124;38.966;2022-11-20T04:11:30;10.77;89.29
65203;HTU21D;51788;45.124;38.966;2022-11-20T04:13:58;10.80;89.23
65203;HTU21D;51788;45.124;38.966;2022-11-20T04:16:25;10.81;89.14
65203;HTU21D;51788;45.124;38.966;2022-11-20T04:18:56;10.80;89.09
65203;HTU21D;51788;45.124;38.966;2022-11-20T04:21:23;10.77;89.06
65203;HTU21D;51788;45.124;38.966;2022-11-20T04:23:50;10.78;88.98
65203;HTU21D;51788;45.124;38.966;2022-11-20T04:26:18;10.75;88.91
65203;HTU21D;51788;45.124;38.966;2022-11-20T04:28:46;10.71;88.91
65203;HTU21D;51788;45.124;38.966;2022-11-20T04:31:17;10.68;88.96
65203;HTU21D;51788;45.124;38.966;2022-11-20T04:33:44;10.65;89.02
65203;HTU21D;51788;45.124;38.966;2022-11-20T04:36:15;10.64;89.13
65203;HTU21D;51788;45.124;38.966;2022-11-20T04:38:42;10.63;89.16
65203;HTU21D;51788;45.124;38.966;2022-11-20T04:41:14;10.63;89.20
65203;HTU21D;51788;45.124;38.966;2022-11-20T04:43:40;10.60;89.17
65203;HTU21D;51788;45.124;38.966;2022-11-20T04:46:07;10.63;89.21
65203;HTU21D;51788;45.124;38.966;2022-11-20T04:48:34;10.67;89.09
65203;HTU21D;51788;45.124;38.966;2022-11-20T04:51:03;10.74;88.95
65203;HTU21D;51788;45.124;38.966;2022-11-20T04:53:29;10.77;88.89
65203;HTU21D;51788;45.124;38.966;2022-11-20T04:56:00;10.79;88.89
65203;HTU21D;51788;45.124;38.966;2022-11-20T04:58:26;10.84;88.83
65203;HTU21D;51788;45.124;38.966;2022-11-20T05:00:52;10.88;88.72
65203;HTU21D;51788;45.124;38.966;2022-11-20T05:03:18;10.94;88.64
65203;HTU21D;51788;45.124;38.966;2022-11-20T05:05:44;10.95;88.59
65203;HTU21D;51788;45.124;38.966;2022-11-20T05:08:10;10.92;88.69
65203;HTU21D;51788;45.124;38.966;2022-11-20T05:10:36;10.88;88.88
65203;HTU21D;51788;45.124;38.966;2022-11-20T05:13:02;10.85;89.05
65203;HTU21D;51788;45.124;38.966;2022-11-20T05:15:28;10.94;89.05
65203;HTU21D;51788;45.124;38.966;2022-11-20T05:17:54;11.00;88.95
65203;HTU21D;51788;45.124;38.966;2022-11-20T05:20:20;11.13;88.80
65203;HTU21D;51788;45.124;38.966;2022-11-20T05:22:46;11.25;88.67
65203;HTU21D;51788;45.124;38.966;2022-11-20T05:25:12;11.40;88.51
65203;HTU21D;51788;45.124;38.966;2022-11-20T05:27:38;11.48;88.34
65203;HTU21D;51788;45.124;38.966;2022-11-20T05:30:05;11.49;88.41
65203;HTU21D;51788;45.124;38.966;2022-11-20T05:32:31;11.55;88.47
65203;HTU21D;51788;45.124;38.966;2022-11-20T05:34:57;11.56;88.46
65203;HTU21D;51788;45.124;38.966;2022-11-20T05:37:23;11.58;88.51
65203;HTU21D;51788;45.124;38.966;2022-11-20T05:39:49;11.61;88.57
65203;HTU21D;51788;45.124;38.966;2022-11-20T05:42:15;11.74;88.65
65203;HTU21D;51788;45.124;38.966;2022-11-20T05:44:57;11.84;88.43
65203;HTU21D;51788;45.124;38.966;2022-11-20T05:47:23;11.91;88.44
65203;HTU21D;51788;45.124;38.966;2022-11-20T05:49:49;11.99;88.38
65203;HTU21D;51788;45.124;38.966;2022-11-20T05:52:15;12.02;88.31
65203;HTU21D;51788;45.124;38.966;2022-11-20T05:54:41;12.03;88.30
65203;HTU21D;51788;45.124;38.966;2022-11-20T05:57:07;12.03;88.37
65203;HTU21D;51788;45.124;38.966;2022-11-20T05:59:33;12.02;88.47
65203;HTU21D;51788;45.124;38.966;2022-11-20T06:01:59;12.02;88.51
65203;HTU21D;51788;45.124;38.966;2022-11-20T06:04:25;11.96;88.55
65203;HTU21D;51788;45.124;38.966;2022-11-20T06:06:51;11.94;88.69
65203;HTU21D;51788;45.124;38.966;2022-11-20T06:09:16;11.99;88.75
65203;HTU21D;51788;45.124;38.966;2022-11-20T06:11:42;12.01;88.70
65203;HTU21D;51788;45.124;38.966;2022-11-20T06:14:08;12.05;88.70
65203;HTU21D;51788;45.124;38.966;2022-11-20T06:16:34;12.06;88.69
65203;HTU21D;51788;45.124;38.966;2022-11-20T06:19:00;12.12;88.70
65203;HTU21D;51788;45.124;38.966;2022-11-20T06:21:26;12.19;88.66
65203;HTU21D;51788;45.124;38.966;2022-11-20T06:23:52;12.29;88.50
65203;HTU21D;51788;45.124;38.966;2022-11-20T06:26:24;12.33;88.35
65203;HTU21D;51788;45.124;38.966;2022-11-20T06:28:51;12.40;88.29
65203;HTU21D;51788;45.124;38.966;2022-11-20T06:31:19;12.45;88.24
65203;HTU21D;51788;45.124;38.966;2022-11-20T06:33:46;12.55;88.15
65203;HTU21D;51788;45.124;38.966;2022-11-20T06:36:14;12.56;88.08
65203;HTU21D;51788;45.124;38.966;2022-11-20T06:38:41;12.59;88.21
65203;HTU21D;51788;45.124;38.966;2022-11-20T06:41:13;12.67;88.06
65203;HTU21D;51788;45.124;38.966;2022-11-20T06:43:39;12.76;87.92
65203;HTU21D;51788;45.124;38.966;2022-11-20T06:46:05;12.79;87.82
65203;HTU21D;51788;45.124;38.966;2022-11-20T06:48:31;12.88;87.72
65203;HTU21D;51788;45.124;38.966;2022-11-20T06:50:58;12.92;87.60
65203;HTU21D;51788;45.124;38.966;2022-11-20T06:53:24;12.94;87.54
65203;HTU21D;51788;45.124;38.966;2022-11-20T06:55:51;12.91;87.58
65203;HTU21D;51788;45.124;38.966;2022-11-20T06:58:17;12.94;87.73
65203;HTU21D;51788;45.124;38.966;2022-11-20T07:00:43;12.97;87.70
65203;HTU21D;51788;45.124;38.966;2022-11-20T07:03:11;13.01;87.68
65203;HTU21D;51788;45.124;38.966;2022-11-20T07:05:38;13.05;87.66
65203;HTU21D;51788;45.124;38.966;2022-11-20T07:08:04;13.12;87.62
65203;HTU21D;51788;45.124;38.966;2022-11-20T07:10:31;13.18;87.48
65203;HTU21D;51788;45.124;38.966;2022-11-20T07:12:57;13.25;87.41
65203;HTU21D;51788;45.124;38.966;2022-11-20T07:15:24;13.32;87.26
65203;HTU21D;51788;45.124;38.966;2022-11-20T07:17:51;13.37;87.20
65203;HTU21D;51788;45.124;38.966;2022-11-20T07:20:17;13.39;87.09
65203;HTU21D;51788;45.124;38.966;2022-11-20T07:22:43;13.40;86.95
65203;HTU21D;51788;45.124;38.966;2022-11-20T07:25:09;13.41;86.98
65203;HTU21D;51788;45.124;38.966;2022-11-20T07:27:36;13.46;86.98
65203;HTU21D;51788;45.124;38.966;2022-11-20T07:30:03;13.54;86.89
65203;HTU21D;51788;45.124;38.966;2022-11-20T07:32:29;13.61;86.70
65203;HTU21D;51788;45.124;38.966;2022-11-20T07:34:55;13.61;86.57
65203;HTU21D;51788;45.124;38.966;2022-11-20T07:37:21;13.63;86.64
65203;HTU21D;51788;45.124;38.966;2022-11-20T07:39:47;13.63;86.48
65203;HTU21D;51788;45.124;38.966;2022-11-20T07:42:13;13.60;86.61
65203;HTU21D;51788;45.124;38.966;2022-11-20T07:44:39;13.62;86.58
65203;HTU21D;51788;45.124;38.966;2022-11-20T07:47:05;13.64;86.62
65203;HTU21D;51788;45.124;38.966;2022-11-20T07:49:31;13.68;86.58
65203;HTU21D;51788;45.124;38.966;2022-11-20T07:51:57;13.74;86.48
65203;HTU21D;51788;45.124;38.966;2022-11-20T07:54:23;13.77;86.43
65203;HTU21D;51788;45.124;38.966;2022-11-20T07:56:49;13.79;86.38
65203;HTU21D;51788;45.124;38.966;2022-11-20T07:59:18;13.81;86.32
65203;HTU21D;51788;45.124;38.966;2022-11-20T08:01:44;13.77;86.36
65203;HTU21D;51788;45.124;38.966;2022-11-20T08:04:10;13.76;86.28
65203;HTU21D;51788;45.124;38.966;2022-11-20T08:06:36;13.70;86.45
65203;HTU21D;51788;45.124;38.966;2022-11-20T08:09:03;13.70;86.51
65203;HTU21D;51788;45.124;38.966;2022-11-20T08:11:29;13.73;86.57
65203;HTU21D;51788;45.124;38.966;2022-11-20T08:14:13;13.78;86.51
65203;HTU21D;51788;45.124;38.966;2022-11-20T08:16:45;13.82;86.52
65203;HTU21D;51788;45.124;38.966;2022-11-20T08:19:13;13.88;86.50
65203;HTU21D;51788;45.124;38.966;2022-11-20T08:21:39;13.92;86.45
65203;HTU21D;51788;45.124;38.966;2022-11-20T08:24:07;13.93;86.59
65203;HTU21D;51788;45.124;38.966;2022-11-20T08:26:35;13.99;86.53
65203;HTU21D;51788;45.124;38.966;2022-11-20T08:29:01;14.04;86.44
65203;HTU21D;51788;45.124;38.966;2022-11-20T08:31:27;14.09;86.40
65203;HTU21D;51788;45.124;38.966;2022-11-20T08:33:53;14.15;86.30
65203;HTU21D;51788;45.124;38.966;2022-11-20T08:36:20;14.20;86.21
65203;HTU21D;51788;45.124;38.966;2022-11-20T08:38:54;14.21;86.03
65203;HTU21D;51788;45.124;38.966;2022-11-20T08:41:21;14.18;86.07
65203;HTU21D;51788;45.124;38.966;2022-11-20T08:43:56;14.18;86.11
65203;HTU21D;51788;45.124;38.966;2022-11-20T08:46:24;14.19;86.13
65203;HTU21D;51788;45.124;38.966;2022-11-20T08:48:50;14.22;86.19
65203;HTU21D;51788;45.124;38.966;2022-11-20T08:51:17;14.23;86.22
65203;HTU21D;51788;45.124;38.966;2022-11-20T08:53:43;14.22;86.30
65203;HTU21D;51788;45.124;38.966;2022-11-20T08:56:09;14.22;86.39
65203;HTU21D;51788;45.124;38.966;2022-11-20T08:58:37;14.22;86.44
65203;HTU21D;51788;45.124;38.966;2022-11-20T09:01:03;14.29;86.42
65203;HTU21D;51788;45.124;38.966;2022-11-20T09:03:29;14.37;86.28
65203;HTU21D;51788;45.124;38.966;2022-11-20T09:05:59;14.44;86.20
65203;HTU21D;51788;45.124;38.966;2022-11-20T09:08:26;14.55;86.05
65203;HTU21D;51788;45.124;38.966;2022-11-20T09:10:54;14.67;85.87
65203;HTU21D;51788;45.124;38.966;2022-11-20T09:13:21;14.80;85.64
65203;HTU21D;51788;45.124;38.966;2022-11-20T09:15:52;14.88;85.45
65203;HTU21D;51788;45.124;38.966;2022-11-20T09:18:18;14.92;85.30
65203;HTU21D;51788;45.124;38.966;2022-11-20T09:20:44;14.93;85.17
65203;HTU21D;51788;45.124;38.966;2022-11-20T09:23:10;14.95;85.08
65203;HTU21D;51788;45.124;38.966;2022-11-20T09:25:36;14.97;85.19
65203;HTU21D;51788;45.124;38.966;2022-11-20T09:28:02;15.03;85.20
65203;HTU21D;51788;45.124;38.966;2022-11-20T09:30:28;15.12;85.07
65203;HTU21D;51788;45.124;38.966;2022-11-20T09:32:54;15.18;84.97
65203;HTU21D;51788;45.124;38.966;2022-11-20T09:35:20;15.27;84.88
65203;HTU21D;51788;45.124;38.966;2022-11-20T09:37:46;15.39;84.70
65203;HTU21D;51788;45.124;38.966;2022-11-20T09:40:23;15.46;84.58
65203;HTU21D;51788;45.124;38.966;2022-11-20T09:50:58;15.84;84.03
65203;HTU21D;51788;45.124;38.966;2022-11-20T09:56:17;16.02;83.67
65203;HTU21D;51788;45.124;38.966;2022-11-20T09:58:47;16.07;83.41
65203;HTU21D;51788;45.124;38.966;2022-11-20T10:01:19;16.13;83.29
65203;HTU21D;51788;45.124;38.966;2022-11-20T10:09:37;16.34;82.81
65203;HTU21D;51788;45.124;38.966;2022-11-20T10:15:06;16.44;82.64
65203;HTU21D;51788;45.124;38.966;2022-11-20T10:26:26;16.47;82.70
65203;HTU21D;51788;45.124;38.966;2022-11-20T10:29:18;16.43;82.70
65203;HTU21D;51788;45.124;38.966;2022-11-20T10:31:53;16.36;82.88
65203;HTU21D;51788;45.124;38.966;2022-11-20T10:34:40;16.32;83.02
65203;HTU21D;51788;45.124;38.966;2022-11-20T10:37:14;16.32;83.08
65203;HTU21D;51788;45.124;38.966;2022-11-20T10:42:42;16.40;82.94
65203;HTU21D;51788;45.124;38.966;2022-11-20T10:50:55;16.56;82.52
65203;HTU21D;51788;45.124;38.966;2022-11-20T10:53:51;16.60;82.26
65203;HTU21D;51788;45.124;38.966;2022-11-20T10:56:41;16.65;82.18
65203;HTU21D;51788;45.124;38.966;2022-11-20T11:01:51;16.75;82.07
65203;HTU21D;51788;45.124;38.966;2022-11-20T11:06:51;16.85;81.78
65203;HTU21D;51788;45.124;38.966;2022-11-20T11:09:37;16.89;81.59
65203;HTU21D;51788;45.124;38.966;2022-11-20T11:12:09;16.91;81.38
65203;HTU21D;51788;45.124;38.966;2022-11-20T11:14:53;16.91;81.30
65203;HTU21D;51788;45.124;38.966;2022-11-20T11:17:28;16.94;81.27
65203;HTU21D;51788;45.124;38.966;2022-11-20T11:22:44;17.05;80.55
65203;HTU21D;51788;45.124;38.966;2022-11-20T11:25:29;17.09;80.27
65203;HTU21D;51788;45.124;38.966;2022-11-20T11:27:58;17.09;80.43
65203;HTU21D;51788;45.124;38.966;2022-11-20T11:30:25;17.10;80.46
65203;HTU21D;51788;45.124;38.966;2022-11-20T11:33:03;17.11;80.29
65203;HTU21D;51788;45.124;38.966;2022-11-20T11:35:30;17.13;80.29
65203;HTU21D;51788;45.124;38.966;2022-11-20T11:38:41;17.13;80.24
65203;HTU21D;51788;45.124;38.966;2022-11-20T11:41:20;17.14;80.24
65203;HTU21D;51788;45.124;38.966;2022-11-20T11:43:54;17.18;80.25
65203;HTU21D;51788;45.124;38.966;2022-11-20T11:46:44;17.22;80.10
65203;HTU21D;51788;45.124;38.966;2022-11-20T11:49:19;17.29;79.97
65203;HTU21D;51788;45.124;38.966;2022-11-20T11:54:27;17.41;79.43
65203;HTU21D;51788;45.124;38.966;2022-11-20T11:56:56;17.43;79.50
65203;HTU21D;51788;45.124;38.966;2022-11-20T12:07:49;17.44;79.16
65203;HTU21D;51788;45.124;38.966;2022-11-20T12:10:36;17.44;79.04
65203;HTU21D;51788;45.124;38.966;2022-11-20T12:13:24;17.40;79.15
65203;HTU21D;51788;45.124;38.966;2022-11-20T12:15:51;17.36;79.31
65203;HTU21D;51788;45.124;38.966;2022-11-20T12:18:21;17.34;79.40
65203;HTU21D;51788;45.124;38.966;2022-11-20T12:24:23;17.32;79.45
65203;HTU21D;51788;45.124;38.966;2022-11-20T12:30:01;17.24;79.65
65203;HTU21D;51788;45.124;38.966;2022-11-20T12:47:23;17.11;79.88
65203;HTU21D;51788;45.124;38.966;2022-11-20T12:50:13;17.07;79.94
65203;HTU21D;51788;45.124;38.966;2022-11-20T12:53:02;17.07;79.97
65203;HTU21D;51788;45.124;38.966;2022-11-20T12:58:12;17.02;80.07
65203;HTU21D;51788;45.124;38.966;2022-11-20T13:00:56;17.01;80.15
65203;HTU21D;51788;45.124;38.966;2022-11-20T13:06:19;16.94;80.30
65203;HTU21D;51788;45.124;38.966;2022-11-20T13:08:54;16.91;80.34
65203;HTU21D;51788;45.124;38.966;2022-11-20T13:17:11;16.90;80.45
65203;HTU21D;51788;45.124;38.966;2022-11-20T13:19:39;16.89;80.48
65203;HTU21D;51788;45.124;38.966;2022-11-20T13:22:05;16.86;80.55
65203;HTU21D;51788;45.124;38.966;2022-11-20T13:24:32;16.86;80.61
65203;HTU21D;51788;45.124;38.966;2022-11-20T13:29:43;16.79;80.77
65203;HTU21D;51788;45.124;38.966;2022-11-20T13:32:18;16.76;80.85
65203;HTU21D;51788;45.124;38.966;2022-11-20T13:34:59;16.73;80.97
65203;HTU21D;51788;45.124;38.966;2022-11-20T13:37:35;16.67;81.07
65203;HTU21D;51788;45.124;38.966;2022-11-20T13:42:40;16.54;81.42
65203;HTU21D;51788;45.124;38.966;2022-11-20T13:45:20;16.47;81.60
65203;HTU21D;51788;45.124;38.966;2022-11-20T13:47:49;16.41;81.74
65203;HTU21D;51788;45.124;38.966;2022-11-20T13:50:15;16.36;81.87
65203;HTU21D;51788;45.124;38.966;2022-11-20T13:58:18;16.18;82.23
65203;HTU21D;51788;45.124;38.966;2022-11-20T14:00:51;16.12;82.33
65203;HTU21D;51788;45.124;38.966;2022-11-20T14:03:24;16.03;82.47
65203;HTU21D;51788;45.124;38.966;2022-11-20T14:05:57;15.98;82.55
65203;HTU21D;51788;45.124;38.966;2022-11-20T14:08:47;15.92;82.69
65203;HTU21D;51788;45.124;38.966;2022-11-20T14:11:28;15.87;82.70
65203;HTU21D;51788;45.124;38.966;2022-11-20T14:14:02;15.81;82.75
65203;HTU21D;51788;45.124;38.966;2022-11-20T14:16:35;15.78;82.75
65203;HTU21D;51788;45.124;38.966;2022-11-20T14:24:34;15.78;82.53
65203;HTU21D;51788;45.124;38.966;2022-11-20T14:27:00;15.82;82.31
65203;HTU21D;51788;45.124;38.966;2022-11-20T14:29:36;15.99;81.53
65203;HTU21D;51788;45.124;38.966;2022-11-20T14:32:04;16.07;81.22
65203;HTU21D;51788;45.124;38.966;2022-11-20T14:34:32;16.11;81.01
65203;HTU21D;51788;45.124;38.966;2022-11-20T14:37:01;16.15;80.71
65203;HTU21D;51788;45.124;38.966;2022-11-20T14:39:31;16.42;79.57
65203;HTU21D;51788;45.124;38.966;2022-11-20T14:41:58;16.70;78.44
65203;HTU21D;51788;45.124;38.966;2022-11-20T14:44:34;16.81;77.67
65203;HTU21D;51788;45.124;38.966;2022-11-20T14:47:02;16.91;77.39
65203;HTU21D;51788;45.124;38.966;2022-11-20T14:49:30;17.00;76.81
65203;HTU21D;51788;45.124;38.966;2022-11-20T14:52:02;17.15;76.05
65203;HTU21D;51788;45.124;38.966;2022-11-20T14:54:28;17.21;75.79
65203;HTU21D;51788;45.124;38.966;2022-11-20T14:57:01;17.22;75.22
65203;HTU21D;51788;45.124;38.966;2022-11-20T14:59:32;17.26;74.56
65203;HTU21D;51788;45.124;38.966;2022-11-20T15:02:04;17.43;73.70
65203;HTU21D;51788;45.124;38.966;2022-11-20T15:04:30;17.55;72.57
65203;HTU21D;51788;45.124;38.966;2022-11-20T15:06:59;17.61;71.39
65203;HTU21D;51788;45.124;38.966;2022-11-20T15:09:25;17.66;71.48
65203;HTU21D;51788;45.124;38.966;2022-11-20T15:12:00;17.70;70.84
65203;HTU21D;51788;45.124;38.966;2022-11-20T15:14:30;17.70;70.90
65203;HTU21D;51788;45.124;38.966;2022-11-20T15:16:58;17.68;70.87
65203;HTU21D;51788;45.124;38.966;2022-11-20T15:19:25;17.63;70.84
65203;HTU21D;51788;45.124;38.966;2022-11-20T15:21:52;17.61;70.83
65203;HTU21D;51788;45.124;38.966;2022-11-20T15:24:19;17.64;70.60
65203;HTU21D;51788;45.124;38.966;2022-11-20T15:26:45;17.66;69.85
65203;HTU21D;51788;45.124;38.966;2022-11-20T15:29:14;17.69;69.14
65203;HTU21D;51788;45.124;38.966;2022-11-20T15:31:44;17.68;69.11
65203;HTU21D;51788;45.124;38.966;2022-11-20T15:34:11;17.65;69.23
65203;HTU21D;51788;45.124;38.966;2022-11-20T15:36:41;17.64;69.29
65203;HTU21D;51788;45.124;38.966;2022-11-20T15:39:08;17.56;69.42
65203;HTU21D;51788;45.124;38.966;2022-11-20T15:41:35;17.52;69.43
65203;HTU21D;51788;45.124;38.966;2022-11-20T15:44:01;17.49;68.87
65203;HTU21D;51788;45.124;38.966;2022-11-20T15:46:29;17.48;68.92
65203;HTU21D;51788;45.124;38.966;2022-11-20T15:48:57;17.49;68.42
65203;HTU21D;51788;45.124;38.966;2022-11-20T15:51:40;17.50;68.30
65203;HTU21D;51788;45.124;38.966;2022-11-20T15:54:24;17.43;68.48
65203;HTU21D;51788;45.124;38.966;2022-11-20T15:56:50;17.36;69.04
65203;HTU21D;51788;45.124;38.966;2022-11-20T15:59:19;17.29;69.05
65203;HTU21D;51788;45.124;38.966;2022-11-20T16:01:45;17.21;69.20
65203;HTU21D;51788;45.124;38.966;2022-11-20T16:04:13;17.19;69.07
65203;HTU21D;51788;45.124;38.966;2022-11-20T16:06:39;17.21;68.90
65203;HTU21D;51788;45.124;38.966;2022-11-20T16:09:06;17.23;68.79
65203;HTU21D;51788;45.124;38.966;2022-11-20T16:11:32;17.23;68.75
65203;HTU21D;51788;45.124;38.966;2022-11-20T16:13:58;17.22;68.83
65203;HTU21D;51788;45.124;38.966;2022-11-20T16:16:43;17.17;68.95
65203;HTU21D;51788;45.124;38.966;2022-11-20T16:19:12;17.13;68.81
65203;HTU21D;51788;45.124;38.966;2022-11-20T16:21:39;17.09;68.99
65203;HTU21D;51788;45.124;38.966;2022-11-20T16:24:09;17.04;69.04
65203;HTU21D;51788;45.124;38.966;2022-11-20T16:26:36;16.98;69.20
65203;HTU21D;51788;45.124;38.966;2022-11-20T16:29:04;16.89;69.42
65203;HTU21D;51788;45.124;38.966;2022-11-20T16:31:31;16.78;69.70
65203;HTU21D;51788;45.124;38.966;2022-11-20T16:34:04;16.70;69.90
65203;HTU21D;51788;45.124;38.966;2022-11-20T16:36:30;16.63;70.15
65203;HTU21D;51788;45.124;38.966;2022-11-20T16:38:58;16.55;70.34
65203;HTU21D;51788;45.124;38.966;2022-11-20T16:41:30;16.45;70.58
65203;HTU21D;51788;45.124;38.966;2022-11-20T16:43:59;16.36;70.80
65203;HTU21D;51788;45.124;38.966;2022-11-20T16:46:28;16.29;70.93
65203;HTU21D;51788;45.124;38.966;2022-11-20T16:49:01;16.24;70.91
65203;HTU21D;51788;45.124;38.966;2022-11-20T16:51:29;16.29;70.68
65203;HTU21D;51788;45.124;38.966;2022-11-20T16:53:56;16.39;70.33
65203;HTU21D;51788;45.124;38.966;2022-11-20T16:56:25;16.47;70.03
65203;HTU21D;51788;45.124;38.966;2022-11-20T16:58:54;16.55;69.84
65203;HTU21D;51788;45.124;38.966;2022-11-20T17:01:22;16.54;69.73